Time;durP1;ratioP1;P1;durP2;ratioP2;P2;SDS_P1;SDS_P2;PMS_P1;PMS_P2;Temp;Humidity;BMP_temperature;BMP_pressure;BME280_temperature;BME280_humidity;BME280_pressure;Samples;Min_cycle;Max_cycle;Signal;HPM_P1;HPM_P2
2022/02/19 00:00:26;;;;;;;;;;;;;;;;;;7395746;19;2327;-47
2022/02/19 00:02:54;;;;;;;;;;;;;;;;;;7395494;19;2302;-45
2022/02/19 00:05:22;;;;;;;;;;;;;;;;;;7395621;19;2199;-46
2022/02/19 00:07:49;;;;;;;;;;;;;;;;;;7395561;19;2267;-47
2022/02/19 00:10:17;;;;;;;;;;;;;;;;;;7395788;19;1799;-49
2022/02/19 00:12:44;;;;;;;;;;;;;;;;;;7396126;19;2264;-48
2022/02/19 00:15:11;;;;;;;;;;;;;;;;;;7395119;19;2297;-49
2022/02/19 00:17:39;;;;;;;;;;;;;;;;;;7394529;19;2366;-46
2022/02/19 00:20:07;;;;;;;;;;;;;;;;;;7395300;19;1997;-56
2022/02/19 00:22:37;;;;;;;;;;;;;;;;;;7393142;19;1772;-48
2022/02/19 00:25:06;;;;;;;;;;;;;;;;;;7394896;19;2100;-46
2022/02/19 00:27:33;;;;;;;;;;;;;;;;;;7395402;19;2300;-52
2022/02/19 00:30:01;;;;;;;;;;;;;;;;;;7393604;19;1993;-46
2022/02/19 00:32:30;;;;;;;;;;;;;;;;;;7393989;19;2452;-46
2022/02/19 00:34:57;;;;;;;;;;;;;;;;;;7393446;19;2261;-45
2022/02/19 00:37:25;;;;;;;;;;;;;;;;;;7392275;19;2469;-45
2022/02/19 00:39:52;;;;;;;;;;;;;;;;;;7395716;19;2312;-48
2022/02/19 00:42:19;;;;;;;;;;;;;;;;;;7395101;19;2262;-49
2022/02/19 00:44:47;;;;;;;;;;;;;;;;;;7396933;19;2209;-45
2022/02/19 00:47:14;;;;;;;;;;;;;;;;;;7394272;19;2040;-46
2022/02/19 00:49:45;;;;;;;;;;;;;;;;;;7394439;19;1851;-47
2022/02/19 00:52:13;;;;;;;;;;;;;;;;;;7392856;19;1693;-47
2022/02/19 00:54:42;;;;;;;;;;;;;;;;;;7392183;19;1811;-47
2022/02/19 00:57:12;;;;;;;;;;;;;;;;;;7393642;19;2198;-47
2022/02/19 00:59:39;;;;;;;;;;;;;;;;;;7394018;19;2191;-49
2022/02/19 01:02:07;;;;;;;;;;;;;;;;;;7392617;19;2415;-46
2022/02/19 01:04:35;;;;;;;;;;;;;;;;;;7392408;19;1820;-45
2022/02/19 01:07:03;;;;;;;;;;;;;;;;;;7393642;19;1882;-53
2022/02/19 01:09:33;;;;;;;;;;;;;;;;;;7393418;19;1768;-46
2022/02/19 01:12:00;;;;;;;;;;;;;;;;;;7393029;19;1966;-45
2022/02/19 01:14:28;;;;;;;;;;;;;;;;;;7394288;19;2207;-45
2022/02/19 01:16:55;;;;;;;;;;;;;;;;;;7391971;19;2499;-46
2022/02/19 01:19:25;;;;;;;;;;;;;;;;;;7392826;19;1819;-46
2022/02/19 01:21:53;;;;;;;;;;;;;;;;;;7391042;19;2231;-47
2022/02/19 01:24:22;;;;;;;;;;;;;;;;;;7391688;19;2320;-45
2022/02/19 01:26:54;;;;;;;;;;;;;;;;;;7390930;19;2139;-44
2022/02/19 01:29:22;;;;;;;;;;;;;;;;;;7393304;19;1992;-44
2022/02/19 01:31:49;;;;;;;;;;;;;;;;;;7391748;19;1877;-47
2022/02/19 01:34:17;;;;;;;;;;;;;;;;;;7391140;19;2009;-48
2022/02/19 01:36:44;;;;;;;;;;;;;;;;;;7391575;19;2342;-48
2022/02/19 01:39:14;;;;;;;;;;;;;;;;;;7389054;19;2277;-45
2022/02/19 01:41:43;;;;;;;;;;;;;;;;;;7390859;19;2203;-67
2022/02/19 01:44:12;;;;;;;;;;;;;;;;;;7391367;19;2061;-47
2022/02/19 01:46:39;;;;;;;;;;;;;;;;;;7390884;19;2276;-49
2022/02/19 01:49:07;;;;;;;;;;;;;;;;;;7390220;19;2204;-45
2022/02/19 01:51:35;;;;;;;;;;;;;;;;;;7391052;19;2190;-49
2022/02/19 01:54:05;;;;;;;;;;;;;;;;;;7392843;19;2343;-54
2022/02/19 01:57:11;;;;;;;;;;;;;;;;;;7388001;19;2038;-45
2022/02/19 02:00:07;;;;;;;;;;;;;;;;;;7387909;19;2211;-45
2022/02/19 02:02:47;;;;;;;;;;;;;;;;;;7389176;19;2325;-45
2022/02/19 02:05:39;;;;;;;;;;;;;;;;;;7391208;19;2230;-45
2022/02/19 02:08:07;;;;;;;;;;;;;;;;;;7391751;19;1342;-72
2022/02/19 02:10:35;;;;;;;;;;;;;;;;;;7391833;19;2270;-49
2022/02/19 02:13:15;;;;;;;;;;;;;;;;;;7391901;19;2026;-45
2022/02/19 02:15:42;;;;;;;;;;;;;;;;;;7390347;19;2484;-45
2022/02/19 02:18:19;;;;;;;;;;;;;;;;;;7388968;19;2304;-46
2022/02/19 02:20:47;;;;;;;;;;;;;;;;;;7386968;19;2320;-45
2022/02/19 02:23:18;;;;;;;;;;;;;;;;;;7389874;19;1992;-46
2022/02/19 02:25:46;;;;;;;;;;;;;;;;;;7389725;19;2115;-45
2022/02/19 02:28:16;;;;;;;;;;;;;;;;;;7389622;19;2094;-50
2022/02/19 02:30:43;;;;;;;;;;;;;;;;;;7391100;19;2009;-45
2022/02/19 02:33:18;;;;;;;;;;;;;;;;;;7389503;19;2268;-45
2022/02/19 02:35:52;;;;;;;;;;;;;;;;;;7391833;19;2297;-47
2022/02/19 02:38:29;;;;;;;;;;;;;;;;;;7389923;19;2320;-50
2022/02/19 02:40:58;;;;;;;;;;;;;;;;;;7389618;19;1986;-48
2022/02/19 02:43:25;;;;;;;;;;;;;;;;;;7389027;19;2253;-46
2022/02/19 02:45:56;;;;;;;;;;;;;;;;;;7393278;19;1519;-46
2022/02/19 02:48:24;;;;;;;;;;;;;;;;;;7388801;19;2236;-54
2022/02/19 02:50:54;;;;;;;;;;;;;;;;;;7389240;19;2139;-50
2022/02/19 02:53:46;;;;;;;;;;;;;;;;;;7390673;19;2232;-50
2022/02/19 02:56:14;;;;;;;;;;;;;;;;;;7388803;19;2285;-45
2022/02/19 02:58:41;;;;;;;;;;;;;;;;;;7388503;19;2352;-47
2022/02/19 03:01:09;;;;;;;;;;;;;;;;;;7388551;19;2135;-51
2022/02/19 03:03:39;;;;;;;;;;;;;;;;;;7388698;19;2293;-48
2022/02/19 03:06:08;;;;;;;;;;;;;;;;;;7390129;19;2160;-45
2022/02/19 03:08:36;;;;;;;;;;;;;;;;;;7388285;19;2400;-48
2022/02/19 03:11:03;;;;;;;;;;;;;;;;;;7391339;19;2265;-45
2022/02/19 03:13:35;;;;;;;;;;;;;;;;;;7389190;19;1916;-47
2022/02/19 03:16:03;;;;;;;;;;;;;;;;;;7389460;19;2309;-48
2022/02/19 03:18:31;;;;;;;;;;;;;;;;;;7387675;19;2296;-46
2022/02/19 03:20:59;;;;;;;;;;;;;;;;;;7386936;19;2203;-47
2022/02/19 03:23:27;;;;;;;;;;;;;;;;;;7389832;19;2229;-47
2022/02/19 03:25:54;;;;;;;;;;;;;;;;;;7388044;19;2233;-47
2022/02/19 03:28:21;;;;;;;;;;;;;;;;;;7387705;19;2323;-46
2022/02/19 03:30:54;;;;;;;;;;;;;;;;;;7388527;19;1877;-45
2022/02/19 03:33:46;;;;;;;;;;;;;;;;;;7394648;19;2331;-57
2022/02/19 03:36:17;;;;;;;;;;;;;;;;;;7396880;19;1784;-49
2022/02/19 03:38:44;;;;;;;;;;;;;;;;;;7393422;19;2190;-47
2022/02/19 03:41:18;;;;;;;;;;;;;;;;;;7394739;19;2493;-47
2022/02/19 03:43:45;;;;;;;;;;;;;;;;;;7395587;19;2071;-46
2022/02/19 03:46:12;;;;;;;;;;;;;;;;;;7396519;19;2215;-46
2022/02/19 03:48:51;;;;;;;;;;;;;;;;;;7399775;19;2428;-45
2022/02/19 03:51:20;;;;;;;;;;;;;;;;;;7395454;19;2239;-47
2022/02/19 03:53:49;;;;;;;;;;;;;;;;;;7394971;19;1761;-46
2022/02/19 03:56:20;;;;;;;;;;;;;;;;;;7396086;19;2263;-46
2022/02/19 03:58:54;;;;;;;;;;;;;;;;;;7393353;19;1846;-45
2022/02/19 04:01:21;;;;;;;;;;;;;;;;;;7394897;19;1976;-47
2022/02/19 04:03:50;;;;;;;;;;;;;;;;;;7393954;19;1985;-45
2022/02/19 04:06:18;;;;;;;;;;;;;;;;;;7394343;19;2449;-45
2022/02/19 04:08:45;;;;;;;;;;;;;;;;;;7393991;19;2229;-46
2022/02/19 04:11:13;;;;;;;;;;;;;;;;;;7394108;19;2359;-47
2022/02/19 04:13:43;;;;;;;;;;;;;;;;;;7394704;19;2221;-45
2022/02/19 04:16:16;;;;;;;;;;;;;;;;;;7395346;19;2606;-45
2022/02/19 04:18:48;;;;;;;;;;;;;;;;;;7392733;19;2324;-49
2022/02/19 04:21:17;;;;;;;;;;;;;;;;;;7392758;19;2172;-45
2022/02/19 04:23:45;;;;;;;;;;;;;;;;;;7393967;19;2236;-45
2022/02/19 04:26:14;;;;;;;;;;;;;;;;;;7394442;19;2264;-47
2022/02/19 04:28:46;;;;;;;;;;;;;;;;;;7392725;19;1872;-45
2022/02/19 04:31:20;;;;;;;;;;;;;;;;;;7394941;19;2186;-49
2022/02/19 04:33:55;;;;;;;;;;;;;;;;;;7393606;19;2343;-45
2022/02/19 04:36:22;;;;;;;;;;;;;;;;;;7393757;19;2250;-47
2022/02/19 04:38:51;;;;;;;;;;;;;;;;;;7392092;19;2272;-46
2022/02/19 04:41:19;;;;;;;;;;;;;;;;;;7392512;19;2263;-47
2022/02/19 04:43:47;;;;;;;;;;;;;;;;;;7391372;19;2228;-57
2022/02/19 04:46:14;;;;;;;;;;;;;;;;;;7392882;19;1861;-48
2022/02/19 04:48:42;;;;;;;;;;;;;;;;;;7394726;19;2326;-45
2022/02/19 04:51:10;;;;;;;;;;;;;;;;;;7394653;19;2264;-45
2022/02/19 04:53:37;;;;;;;;;;;;;;;;;;7392797;19;2259;-46
2022/02/19 04:56:05;;;;;;;;;;;;;;;;;;7393458;19;2008;-47
2022/02/19 04:58:32;;;;;;;;;;;;;;;;;;7394200;19;2133;-46
2022/02/19 05:01:01;;;;;;;;;;;;;;;;;;7394834;19;1596;-46
2022/02/19 05:03:32;;;;;;;;;;;;;;;;;;7394386;19;2288;-46
2022/02/19 05:06:19;;;;;;;;;;;;;;;;;;7392897;19;2102;-46
2022/02/19 05:08:53;;;;;;;;;;;;;;;;;;7394564;19;2220;-46
2022/02/19 05:11:24;;;;;;;;;;;;;;;;;;7392222;19;2136;-48
2022/02/19 05:13:53;;;;;;;;;;;;;;;;;;7392841;19;2179;-46
2022/02/19 05:16:21;;;;;;;;;;;;;;;;;;7392343;19;2249;-49
2022/02/19 05:19:01;;;;;;;;;;;;;;;;;;7390635;19;2265;-47
2022/02/19 05:21:32;;;;;;;;;;;;;;;;;;7390781;19;2273;-47
2022/02/19 05:24:02;;;;;;;;;;;;;;;;;;7392051;19;1989;-46
2022/02/19 05:26:40;;;;;;;;;;;;;;;;;;7391425;19;2290;-49
2022/02/19 05:29:11;;;;;;;;;;;;;;;;;;7391432;19;1935;-46
2022/02/19 05:31:40;;;;;;;;;;;;;;;;;;7391526;19;2253;-48
2022/02/19 05:34:25;;;;;;;;;;;;;;;;;;7391459;19;2395;-45
2022/02/19 05:36:56;;;;;;;;;;;;;;;;;;7391892;19;1969;-48
2022/02/19 05:39:25;;;;;;;;;;;;;;;;;;7389846;19;1860;-45
2022/02/19 05:41:53;;;;;;;;;;;;;;;;;;7390574;19;2232;-48
2022/02/19 05:44:27;;;;;;;;;;;;;;;;;;7394511;19;2095;-48
2022/02/19 05:47:00;;;;;;;;;;;;;;;;;;7392329;19;2304;-58
2022/02/19 05:49:28;;;;;;;;;;;;;;;;;;7390590;19;2546;-47
2022/02/19 05:52:09;;;;;;;;;;;;;;;;;;7392777;19;1879;-46
2022/02/19 05:54:46;;;;;;;;;;;;;;;;;;7390501;19;2777;-46
2022/02/19 05:57:20;;;;;;;;;;;;;;;;;;7394163;19;2315;-48
2022/02/19 05:59:48;;;;;;;;;;;;;;;;;;7389727;19;2042;-48
2022/02/19 06:02:15;;;;;;;;;;;;;;;;;;7390529;19;2289;-47
2022/02/19 06:04:43;;;;;;;;;;;;;;;;;;7391758;19;2197;-48
2022/02/19 06:07:12;;;;;;;;;;;;;;;;;;7389394;19;2224;-49
2022/02/19 06:09:40;;;;;;;;;;;;;;;;;;7392384;19;2264;-49
2022/02/19 06:12:08;;;;;;;;;;;;;;;;;;7389668;19;1666;-46
2022/02/19 06:14:51;;;;;;;;;;;;;;;;;;7390574;19;1907;-55
2022/02/19 06:17:24;;;;;;;;;;;;;;;;;;7390658;19;2215;-47
2022/02/19 06:19:51;;;;;;;;;;;;;;;;;;7388878;19;1974;-53
2022/02/19 06:22:18;;;;;;;;;;;;;;;;;;7388108;19;2637;-46
2022/02/19 06:24:49;;;;;;;;;;;;;;;;;;7391844;19;2344;-46
2022/02/19 06:27:17;;;;;;;;;;;;;;;;;;7389499;19;2322;-46
2022/02/19 06:29:51;;;;;;;;;;;;;;;;;;7389970;19;2250;-47
2022/02/19 06:32:28;;;;;;;;;;;;;;;;;;7389642;19;2285;-50
2022/02/19 06:35:04;;;;;;;;;;;;;;;;;;7390044;19;2290;-47
2022/02/19 06:37:37;;;;;;;;;;;;;;;;;;7391775;19;2090;-45
2022/02/19 06:40:04;;;;;;;;;;;;;;;;;;7388882;19;1841;-62
2022/02/19 06:42:35;;;;;;;;;;;;;;;;;;7390154;19;2071;-47
2022/02/19 06:45:18;;;;;;;;;;;;;;;;;;7393714;19;2481;-47
2022/02/19 06:47:46;;;;;;;;;;;;;;;;;;7389615;19;2243;-46
2022/02/19 06:50:17;;;;;;;;;;;;;;;;;;7389290;19;1695;-45
2022/02/19 06:52:46;;;;;;;;;;;;;;;;;;7390406;19;1971;-48
2022/02/19 06:55:17;;;;;;;;;;;;;;;;;;7389173;19;1935;-55
2022/02/19 06:57:49;;;;;;;;;;;;;;;;;;7389343;19;2087;-46
2022/02/19 07:00:18;;;;;;;;;;;;;;;;;;7387786;19;1853;-47
2022/02/19 07:02:56;;;;;;;;;;;;;;;;;;7388438;19;2519;-46
2022/02/19 07:05:27;;;;;;;;;;;;;;;;;;7388529;19;2205;-51
2022/02/19 07:07:57;;;;;;;;;;;;;;;;;;7394395;19;2297;-48
2022/02/19 07:10:27;;;;;;;;;;;;;;;;;;7396805;19;1427;-48
2022/02/19 07:12:57;;;;;;;;;;;;;;;;;;7397984;19;2035;-45
2022/02/19 07:15:24;;;;;;;;;;;;;;;;;;7397496;19;2180;-51
2022/02/19 07:18:10;;;;;;;;;;;;;;;;;;7398783;19;2110;-77
2022/02/19 07:21:04;;;;;;;;;;;;;;;;;;7395415;19;1850;-46
2022/02/19 07:23:32;;;;;;;;;;;;;;;;;;7396451;19;2278;-47
2022/02/19 07:26:00;;;;;;;;;;;;;;;;;;7395731;19;2416;-46
2022/02/19 07:28:34;;;;;;;;;;;;;;;;;;7396138;19;2224;-50
2022/02/19 07:31:01;;;;;;;;;;;;;;;;;;7395683;19;2300;-46
2022/02/19 07:33:28;;;;;;;;;;;;;;;;;;7395668;19;1628;-45
2022/02/19 07:36:00;;;;;;;;;;;;;;;;;;7395018;19;2302;-45
2022/02/19 07:38:30;;;;;;;;;;;;;;;;;;7395181;19;2214;-45
2022/02/19 07:40:58;;;;;;;;;;;;;;;;;;7393444;19;2060;-60
2022/02/19 07:43:39;;;;;;;;;;;;;;;;;;7394954;19;2136;-59
2022/02/19 07:46:18;;;;;;;;;;;;;;;;;;7394874;19;2243;-45
2022/02/19 07:58:18;;;;;;;;;;;;;;;;;;7394931;19;2283;-63
2022/02/19 08:00:51;;;;;;;;;;;;;;;;;;7393664;19;2465;-45
2022/02/19 08:03:21;;;;;;;;;;;;;;;;;;7393841;19;2209;-48
2022/02/19 08:05:56;;;;;;;;;;;;;;;;;;7396505;19;2105;-48
2022/02/19 08:08:25;;;;;;;;;;;;;;;;;;7394317;19;2061;-48
2022/02/19 08:10:55;;;;;;;;;;;;;;;;;;7394729;19;2221;-45
2022/02/19 08:13:25;;;;;;;;;;;;;;;;;;7395286;19;2374;-49
2022/02/19 08:15:52;;;;;;;;;;;;;;;;;;7395701;19;2289;-46
2022/02/19 08:18:19;;;;;;;;;;;;;;;;;;7392308;19;2268;-45
2022/02/19 08:20:48;;;;;;;;;;;;;;;;;;7394033;19;2366;-48
2022/02/19 08:23:16;;;;;;;;;;;;;;;;;;7395235;19;2511;-45
2022/02/19 08:25:43;;;;;;;;;;;;;;;;;;7397706;19;2358;-52
2022/02/19 08:28:10;;;;;;;;;;;;;;;;;;7394877;19;2307;-45
2022/02/19 08:30:40;;;;;;;;;;;;;;;;;;7395336;19;2064;-45
2022/02/19 08:33:08;;;;;;;;;;;;;;;;;;7398648;19;2108;-50
2022/02/19 08:35:36;;;;;;;;;;;;;;;;;;7395348;19;1948;-47
2022/02/19 08:38:03;;;;;;;;;;;;;;;;;;7395756;19;1548;-50
2022/02/19 08:40:31;;;;;;;;;;;;;;;;;;7392328;19;2297;-48
2022/02/19 08:42:58;;;;;;;;;;;;;;;;;;7393891;19;2376;-53
2022/02/19 08:45:25;;;;;;;;;;;;;;;;;;7397677;19;2084;-49
2022/02/19 08:47:54;;;;;;;;;;;;;;;;;;7395689;19;1762;-47
2022/02/19 08:50:21;;;;;;;;;;;;;;;;;;7394276;19;2281;-70
2022/02/19 08:52:49;;;;;;;;;;;;;;;;;;7394544;19;2355;-44
2022/02/19 08:55:17;;;;;;;;;;;;;;;;;;7394216;19;2315;-50
2022/02/19 08:57:46;;;;;;;;;;;;;;;;;;7394052;19;2712;-49
2022/02/19 09:00:14;;;;;;;;;;;;;;;;;;7392978;19;1845;-44
2022/02/19 09:02:42;;;;;;;;;;;;;;;;;;7394097;19;2103;-49
2022/02/19 09:05:10;;;;;;;;;;;;;;;;;;7394413;19;2314;-47
2022/02/19 09:07:39;;;;;;;;;;;;;;;;;;7393743;19;2281;-44
2022/02/19 09:10:07;;;;;;;;;;;;;;;;;;7393511;19;2382;-48
2022/02/19 09:12:35;;;;;;;;;;;;;;;;;;7394628;19;2296;-48
2022/02/19 09:15:03;;;;;;;;;;;;;;;;;;7394131;19;2215;-48
2022/02/19 09:17:31;;;;;;;;;;;;;;;;;;7393766;19;2213;-47
2022/02/19 09:19:58;;;;;;;;;;;;;;;;;;7391794;19;2782;-46
2022/02/19 09:22:25;;;;;;;;;;;;;;;;;;7391220;19;1405;-71
2022/02/19 09:24:53;;;;;;;;;;;;;;;;;;7394010;19;2210;-51
2022/02/19 09:27:20;;;;;;;;;;;;;;;;;;7392886;19;2269;-45
2022/02/19 09:29:50;;;;;;;;;;;;;;;;;;7392640;19;2219;-47
2022/02/19 09:32:17;;;;;;;;;;;;;;;;;;7393424;19;1807;-50
2022/02/19 09:34:44;;;;;;;;;;;;;;;;;;7393393;19;2281;-52
2022/02/19 09:37:12;;;;;;;;;;;;;;;;;;7392545;19;1624;-47
2022/02/19 09:39:39;;;;;;;;;;;;;;;;;;7393065;19;2290;-48
2022/02/19 09:42:07;;;;;;;;;;;;;;;;;;7392603;19;2066;-50
2022/02/19 09:44:34;;;;;;;;;;;;;;;;;;7395186;19;1943;-48
2022/02/19 09:47:01;;;;;;;;;;;;;;;;;;7392104;19;2231;-52
2022/02/19 09:49:29;;;;;;;;;;;;;;;;;;7392920;19;2078;-60
2022/02/19 09:51:59;;;;;;;;;;;;;;;;;;7392280;19;2341;-56
2022/02/19 09:54:26;;;;;;;;;;;;;;;;;;7392629;19;2371;-55
2022/02/19 09:56:58;;;;;;;;;;;;;;;;;;7392759;19;2152;-58
2022/02/19 09:59:26;;;;;;;;;;;;;;;;;;7391425;19;1951;-50
2022/02/19 10:02:00;;;;;;;;;;;;;;;;;;7392338;19;2382;-46
2022/02/19 10:04:27;;;;;;;;;;;;;;;;;;7392193;19;2315;-51
2022/02/19 10:06:56;;;;;;;;;;;;;;;;;;7391640;19;2285;-50
2022/02/19 10:09:24;;;;;;;;;;;;;;;;;;7391747;19;2283;-46
2022/02/19 10:11:52;;;;;;;;;;;;;;;;;;7391827;19;1629;-48
2022/02/19 10:14:26;;;;;;;;;;;;;;;;;;7391565;19;2074;-44
2022/02/19 10:17:16;;;;;;;;;;;;;;;;;;7391504;19;2118;-54
2022/02/19 10:19:47;;;;;;;;;;;;;;;;;;7390751;19;1861;-50
2022/02/19 10:22:17;;;;;;;;;;;;;;;;;;7390178;19;2170;-46
2022/02/19 10:24:46;;;;;;;;;;;;;;;;;;7391863;19;1749;-51
2022/02/19 10:27:14;;;;;;;;;;;;;;;;;;7390704;19;1935;-49
2022/02/19 10:29:51;;;;;;;;;;;;;;;;;;7391546;19;1423;-43
2022/02/19 10:32:19;;;;;;;;;;;;;;;;;;7392111;19;2181;-48
2022/02/19 10:34:54;;;;;;;;;;;;;;;;;;7391372;19;2332;-55
2022/02/19 10:37:25;;;;;;;;;;;;;;;;;;7391015;19;2151;-48
2022/02/19 10:39:53;;;;;;;;;;;;;;;;;;7390353;19;2327;-50
2022/02/19 10:42:30;;;;;;;;;;;;;;;;;;7389408;19;2188;-45
2022/02/19 10:44:57;;;;;;;;;;;;;;;;;;7393848;19;2298;-69
2022/02/19 10:47:25;;;;;;;;;;;;;;;;;;7389650;19;1506;-46
2022/02/19 10:50:05;;;;;;;;;;;;;;;;;;7391066;19;2226;-45
2022/02/19 10:52:35;;;;;;;;;;;;;;;;;;7391451;19;1952;-46
2022/02/19 10:55:13;;;;;;;;;;;;;;;;;;7390970;19;2213;-44
2022/02/19 10:57:41;;;;;;;;;;;;;;;;;;7387922;19;2525;-43
2022/02/19 11:00:13;;;;;;;;;;;;;;;;;;7385042;19;2313;-44
2022/02/19 11:02:40;;;;;;;;;;;;;;;;;;7385613;19;2291;-43
2022/02/19 11:05:09;;;;;;;;;;;;;;;;;;7386212;19;2139;-45
2022/02/19 11:07:37;;;;;;;;;;;;;;;;;;7386356;19;2168;-42
2022/02/19 11:10:05;;;;;;;;;;;;;;;;;;7386819;19;2346;-44
2022/02/19 11:12:33;;;;;;;;;;;;;;;;;;7386768;19;2333;-43
2022/02/19 11:15:00;;;;;;;;;;;;;;;;;;7389845;19;2168;-44
2022/02/19 11:17:29;;;;;;;;;;;;;;;;;;7389570;19;1669;-44
2022/02/19 11:20:04;;;;;;;;;;;;;;;;;;7389785;19;2052;-43
2022/02/19 11:22:32;;;;;;;;;;;;;;;;;;7387995;19;1966;-45
2022/02/19 11:25:01;;;;;;;;;;;;;;;;;;7389405;19;2503;-46
2022/02/19 11:27:48;;;;;;;;;;;;;;;;;;7389500;19;2359;-44
2022/02/19 11:30:20;;;;;;;;;;;;;;;;;;7389693;19;1623;-47
2022/02/19 11:32:48;;;;;;;;;;;;;;;;;;7389645;19;2311;-64
2022/02/19 11:35:29;;;;;;;;;;;;;;;;;;7388966;19;2188;-60
2022/02/19 11:37:56;;;;;;;;;;;;;;;;;;7389379;19;1608;-44
2022/02/19 11:40:25;;;;;;;;;;;;;;;;;;7388350;19;2322;-46
2022/02/19 11:42:53;;;;;;;;;;;;;;;;;;7389176;19;1989;-47
2022/02/19 11:45:22;;;;;;;;;;;;;;;;;;7392192;19;2331;-48
2022/02/19 11:47:51;;;;;;;;;;;;;;;;;;7388628;19;2173;-48
2022/02/19 11:50:18;;;;;;;;;;;;;;;;;;7389457;19;2229;-46
2022/02/19 11:53:05;;;;;;;;;;;;;;;;;;7387258;19;2080;-44
2022/02/19 11:55:34;;;;;;;;;;;;;;;;;;7395994;19;1933;-53
2022/02/19 11:58:05;;;;;;;;;;;;;;;;;;7399673;19;2355;-43
2022/02/19 12:00:50;;;;;;;;;;;;;;;;;;7394476;19;2064;-47
2022/02/19 12:03:18;;;;;;;;;;;;;;;;;;7395984;19;2260;-46
2022/02/19 12:06:18;;;;;;;;;;;;;;;;;;7395982;19;1719;-45
2022/02/19 12:08:46;;;;;;;;;;;;;;;;;;7393910;19;2198;-45
2022/02/19 12:11:14;;;;;;;;;;;;;;;;;;7395941;19;2276;-54
2022/02/19 12:13:45;;;;;;;;;;;;;;;;;;7395482;19;1634;-44
2022/02/19 12:16:31;;;;;;;;;;;;;;;;;;7395817;19;2288;-47
2022/02/19 12:18:59;;;;;;;;;;;;;;;;;;7395476;19;2273;-50
2022/02/19 12:21:46;;;;;;;;;;;;;;;;;;7393539;19;2012;-43
2022/02/19 12:24:22;;;;;;;;;;;;;;;;;;7395545;19;2619;-50
2022/02/19 12:26:55;;;;;;;;;;;;;;;;;;7394988;19;1635;-48
2022/02/19 12:29:27;;;;;;;;;;;;;;;;;;7395321;19;2281;-46
2022/02/19 12:32:04;;;;;;;;;;;;;;;;;;7395167;19;2233;-52
2022/02/19 12:34:33;;;;;;;;;;;;;;;;;;7395231;19;1971;-45
2022/02/19 12:37:12;;;;;;;;;;;;;;;;;;7395313;19;1552;-46
2022/02/19 12:39:43;;;;;;;;;;;;;;;;;;7394633;19;2125;-53
2022/02/19 12:42:24;;;;;;;;;;;;;;;;;;7392153;19;2321;-45
2022/02/19 12:45:02;;;;;;;;;;;;;;;;;;7397086;19;2103;-47
2022/02/19 12:47:29;;;;;;;;;;;;;;;;;;7396119;19;2350;-46
2022/02/19 12:49:57;;;;;;;;;;;;;;;;;;7394184;19;2126;-64
2022/02/19 12:52:24;;;;;;;;;;;;;;;;;;7394665;19;2294;-45
2022/02/19 12:54:51;;;;;;;;;;;;;;;;;;7394926;19;2398;-48
2022/02/19 12:57:20;;;;;;;;;;;;;;;;;;7393788;19;2073;-45
2022/02/19 12:59:48;;;;;;;;;;;;;;;;;;7393938;19;2312;-43
2022/02/19 13:02:17;;;;;;;;;;;;;;;;;;7391625;19;1838;-53
2022/02/19 13:04:44;;;;;;;;;;;;;;;;;;7392766;19;2392;-50
2022/02/19 13:07:12;;;;;;;;;;;;;;;;;;7393815;19;2470;-48
2022/02/19 13:09:40;;;;;;;;;;;;;;;;;;7393600;19;2022;-48
2022/02/19 13:12:07;;;;;;;;;;;;;;;;;;7394510;19;2308;-45
2022/02/19 13:14:34;;;;;;;;;;;;;;;;;;7394381;19;2335;-48
2022/02/19 13:17:03;;;;;;;;;;;;;;;;;;7393769;19;2115;-44
2022/02/19 13:19:32;;;;;;;;;;;;;;;;;;7393696;19;1978;-62
2022/02/19 13:22:04;;;;;;;;;;;;;;;;;;7391541;19;1909;-53
2022/02/19 13:24:32;;;;;;;;;;;;;;;;;;7393729;19;2388;-46
2022/02/19 13:27:09;;;;;;;;;;;;;;;;;;7393070;19;2220;-43
2022/02/19 13:29:37;;;;;;;;;;;;;;;;;;7393869;19;1880;-44
2022/02/19 13:32:05;;;;;;;;;;;;;;;;;;7393681;19;2328;-46
2022/02/19 13:34:36;;;;;;;;;;;;;;;;;;7393160;19;2192;-46
2022/02/19 13:37:04;;;;;;;;;;;;;;;;;;7392884;19;1711;-47
2022/02/19 13:39:35;;;;;;;;;;;;;;;;;;7392563;19;2223;-45
2022/02/19 13:42:05;;;;;;;;;;;;;;;;;;7391865;19;2118;-47
2022/02/19 13:44:44;;;;;;;;;;;;;;;;;;7394439;19;2386;-65
2022/02/19 13:47:12;;;;;;;;;;;;;;;;;;7392017;19;1729;-45
2022/02/19 13:49:43;;;;;;;;;;;;;;;;;;7393204;19;2290;-47
2022/02/19 13:52:26;;;;;;;;;;;;;;;;;;7392166;19;1526;-46
2022/02/19 13:54:57;;;;;;;;;;;;;;;;;;7392419;19;2728;-49
2022/02/19 13:57:25;;;;;;;;;;;;;;;;;;7392438;19;2200;-70
2022/02/19 13:59:59;;;;;;;;;;;;;;;;;;7391999;19;2181;-47
2022/02/19 14:02:41;;;;;;;;;;;;;;;;;;7392528;19;2105;-49
2022/02/19 14:05:09;;;;;;;;;;;;;;;;;;7392656;19;2046;-48
2022/02/19 14:07:51;;;;;;;;;;;;;;;;;;7392285;19;2007;-57
2022/02/19 14:10:18;;;;;;;;;;;;;;;;;;7392123;19;2309;-48
2022/02/19 14:12:47;;;;;;;;;;;;;;;;;;7392474;19;2462;-47
2022/02/19 14:15:17;;;;;;;;;;;;;;;;;;7391255;19;2314;-47
2022/02/19 14:17:44;;;;;;;;;;;;;;;;;;7389236;19;2185;-50
2022/02/19 14:20:13;;;;;;;;;;;;;;;;;;7390968;19;2166;-47
2022/02/19 14:22:40;;;;;;;;;;;;;;;;;;7389502;19;2249;-45
2022/02/19 14:25:12;;;;;;;;;;;;;;;;;;7391900;19;2180;-48
2022/02/19 14:27:46;;;;;;;;;;;;;;;;;;7391812;19;2061;-46
2022/02/19 14:30:13;;;;;;;;;;;;;;;;;;7390863;19;2187;-46
2022/02/19 14:32:41;;;;;;;;;;;;;;;;;;7391030;19;1562;-47
2022/02/19 14:35:08;;;;;;;;;;;;;;;;;;7390944;19;2062;-45
2022/02/19 14:37:37;;;;;;;;;;;;;;;;;;7392120;19;1999;-44
2022/02/19 14:40:05;;;;;;;;;;;;;;;;;;7390658;19;2305;-45
2022/02/19 14:42:32;;;;;;;;;;;;;;;;;;7389330;19;2229;-75
2022/02/19 14:45:00;;;;;;;;;;;;;;;;;;7394093;19;2257;-45
2022/02/19 14:47:27;;;;;;;;;;;;;;;;;;7390399;19;2007;-45
2022/02/19 14:49:54;;;;;;;;;;;;;;;;;;7390749;19;2162;-46
2022/02/19 14:52:23;;;;;;;;;;;;;;;;;;7390925;19;2208;-52
2022/02/19 14:54:51;;;;;;;;;;;;;;;;;;7391043;19;2054;-46
2022/02/19 14:57:19;;;;;;;;;;;;;;;;;;7390291;19;2283;-43
2022/02/19 14:59:47;;;;;;;;;;;;;;;;;;7390685;19;2293;-47
2022/02/19 15:02:14;;;;;;;;;;;;;;;;;;7388853;19;2191;-44
2022/02/19 15:04:41;;;;;;;;;;;;;;;;;;7390644;19;2465;-44
2022/02/19 15:07:23;;;;;;;;;;;;;;;;;;7390491;19;1377;-48
2022/02/19 15:09:51;;;;;;;;;;;;;;;;;;7390377;19;2263;-47
2022/02/19 15:12:18;;;;;;;;;;;;;;;;;;7389669;19;2235;-52
2022/02/19 15:14:45;;;;;;;;;;;;;;;;;;7389209;19;1942;-75
2022/02/19 15:17:12;;;;;;;;;;;;;;;;;;7389948;19;2130;-53
2022/02/19 15:19:41;;;;;;;;;;;;;;;;;;7390267;19;2299;-45
2022/02/19 15:22:08;;;;;;;;;;;;;;;;;;7389402;19;2313;-49
2022/02/19 15:24:39;;;;;;;;;;;;;;;;;;7390642;19;2246;-47
2022/02/19 15:27:07;;;;;;;;;;;;;;;;;;7390107;19;2123;-67
2022/02/19 15:29:34;;;;;;;;;;;;;;;;;;7393759;19;1986;-49
2022/02/19 15:32:02;;;;;;;;;;;;;;;;;;7397208;19;2275;-47
2022/02/19 15:34:34;;;;;;;;;;;;;;;;;;7397234;19;2039;-48
2022/02/19 15:37:03;;;;;;;;;;;;;;;;;;7397387;19;1845;-47
2022/02/19 15:39:30;;;;;;;;;;;;;;;;;;7396723;19;2048;-59
2022/02/19 15:42:00;;;;;;;;;;;;;;;;;;7394991;19;2179;-50
2022/02/19 15:44:27;;;;;;;;;;;;;;;;;;7398090;19;2301;-46
2022/02/19 15:46:55;;;;;;;;;;;;;;;;;;7397774;19;2360;-51
2022/02/19 15:49:22;;;;;;;;;;;;;;;;;;7396640;19;2331;-76
2022/02/19 15:51:49;;;;;;;;;;;;;;;;;;7396708;19;2221;-52
2022/02/19 15:54:19;;;;;;;;;;;;;;;;;;7396593;19;2118;-48
2022/02/19 15:56:46;;;;;;;;;;;;;;;;;;7396747;19;1542;-48
2022/02/19 15:59:13;;;;;;;;;;;;;;;;;;7396483;19;2309;-50
2022/02/19 16:01:40;;;;;;;;;;;;;;;;;;7395479;19;2252;-47
2022/02/19 16:04:07;;;;;;;;;;;;;;;;;;7396421;19;2471;-48
2022/02/19 16:06:35;;;;;;;;;;;;;;;;;;7394626;19;2195;-46
2022/02/19 16:09:04;;;;;;;;;;;;;;;;;;7395311;19;2232;-48
2022/02/19 16:11:31;;;;;;;;;;;;;;;;;;7396130;19;2271;-47
2022/02/19 16:13:59;;;;;;;;;;;;;;;;;;7394170;19;2387;-49
2022/02/19 16:16:26;;;;;;;;;;;;;;;;;;7395743;19;1922;-50
2022/02/19 16:18:53;;;;;;;;;;;;;;;;;;7395819;19;2061;-59
2022/02/19 16:21:21;;;;;;;;;;;;;;;;;;7394210;19;2529;-53
2022/02/19 16:23:48;;;;;;;;;;;;;;;;;;7394973;19;2518;-46
2022/02/19 16:26:15;;;;;;;;;;;;;;;;;;7395155;19;2135;-43
2022/02/19 16:28:42;;;;;;;;;;;;;;;;;;7394960;19;2262;-55
2022/02/19 16:31:10;;;;;;;;;;;;;;;;;;7395232;19;1395;-50
2022/02/19 16:33:38;;;;;;;;;;;;;;;;;;7395657;19;2072;-44
2022/02/19 16:36:06;;;;;;;;;;;;;;;;;;7392571;19;2306;-48
2022/02/19 16:38:33;;;;;;;;;;;;;;;;;;7395050;19;1887;-47
2022/02/19 16:41:04;;;;;;;;;;;;;;;;;;7391810;19;1863;-46
2022/02/19 16:43:34;;;;;;;;;;;;;;;;;;7394779;19;2612;-61
2022/02/19 16:46:09;;;;;;;;;;;;;;;;;;7398570;19;2364;-57
2022/02/19 16:48:36;;;;;;;;;;;;;;;;;;7395688;19;2193;-47
2022/02/19 16:51:03;;;;;;;;;;;;;;;;;;7392407;19;2299;-47
2022/02/19 16:53:31;;;;;;;;;;;;;;;;;;7392779;19;1346;-48
2022/02/19 16:56:00;;;;;;;;;;;;;;;;;;7394289;19;2286;-44
2022/02/19 16:58:28;;;;;;;;;;;;;;;;;;7394500;19;1908;-44
2022/02/19 17:00:58;;;;;;;;;;;;;;;;;;7394397;19;2160;-43
2022/02/19 17:03:27;;;;;;;;;;;;;;;;;;7396661;19;2286;-44
2022/02/19 17:05:54;;;;;;;;;;;;;;;;;;7393426;19;2334;-43
2022/02/19 17:08:21;;;;;;;;;;;;;;;;;;7394533;19;2385;-44
2022/02/19 17:10:50;;;;;;;;;;;;;;;;;;7394183;19;2349;-45
2022/02/19 17:13:18;;;;;;;;;;;;;;;;;;7392626;19;2096;-44
2022/02/19 17:15:47;;;;;;;;;;;;;;;;;;7393460;19;2414;-45
2022/02/19 17:18:14;;;;;;;;;;;;;;;;;;7393892;19;1977;-45
2022/02/19 17:20:41;;;;;;;;;;;;;;;;;;7392767;19;1704;-44
2022/02/19 17:23:09;;;;;;;;;;;;;;;;;;7392273;19;2350;-45
2022/02/19 17:25:36;;;;;;;;;;;;;;;;;;7392874;19;2223;-44
2022/02/19 17:28:04;;;;;;;;;;;;;;;;;;7393575;19;2242;-45
2022/02/19 17:30:31;;;;;;;;;;;;;;;;;;7393386;19;1722;-44
2022/02/19 17:32:58;;;;;;;;;;;;;;;;;;7394034;19;2039;-44